<?xml version="1.0" encoding="utf-8"?>
<gpx xmlns:xsi="http://www.w3.org/2001/XMLSchema-instance" xmlns:xsd="http://www.w3.org/2001/XMLSchema" version="1.1" creator="Shapelink.com" xmlns="http://www.topografix.com/GPX/1/1" xmlns:gpxtpx="http://www.garmin.com/xmlschemas/TrackPointExtension/v1">
  <metadata>
    <name>Cycling 10.57 km, 2020-07-01</name>
    <desc></desc>
    <author><name>Marian Moron</name></author> 
    <time>2020-07-01T19:27:08Z</time>
  </metadata>
  <trk>
    <name>Cycling 10.57 km, 2020-07-01</name>
    <trkseg>
      <trkpt lat="51.228846029049" lon="4.448938847032">
        <ele>0</ele>
        <time>2020-07-01T19:27:08Z</time>
      </trkpt>
      <trkpt lat="51.228841838099" lon="4.448999867264">
        <ele>0</ele>
        <time>2020-07-01T19:27:13Z</time>
      </trkpt>
      <trkpt lat="51.228537910405" lon="4.449512001354">
        <ele>0</ele>
        <time>2020-07-01T19:27:30Z</time>
      </trkpt>
      <trkpt lat="51.228514189628" lon="4.449474450442">
        <ele>0</ele>
        <time>2020-07-01T19:27:32Z</time>
      </trkpt>
      <trkpt lat="51.228535395835" lon="4.449439078824">
        <ele>0</ele>
        <time>2020-07-01T19:27:34Z</time>
      </trkpt>
      <trkpt lat="51.228936721207" lon="4.448858883706">
        <ele>0</ele>
        <time>2020-07-01T19:27:55Z</time>
      </trkpt>
      <trkpt lat="51.229016768352" lon="4.448744638409">
        <ele>0</ele>
        <time>2020-07-01T19:28:07Z</time>
      </trkpt>
      <trkpt lat="51.22906722739" lon="4.448745225142">
        <ele>0</ele>
        <time>2020-07-01T19:28:14Z</time>
      </trkpt>
      <trkpt lat="51.229119362808" lon="4.448818985862">
        <ele>0</ele>
        <time>2020-07-01T19:28:26Z</time>
      </trkpt>
      <trkpt lat="51.229085332294" lon="4.448695688113">
        <ele>0</ele>
        <time>2020-07-01T19:28:31Z</time>
      </trkpt>
      <trkpt lat="51.22937987226" lon="4.449177731182">
        <ele>0</ele>
        <time>2020-07-01T19:28:53Z</time>
      </trkpt>
      <trkpt lat="51.229402000476" lon="4.449190052575">
        <ele>0</ele>
        <time>2020-07-01T19:28:55Z</time>
      </trkpt>
      <trkpt lat="51.22940334158" lon="4.449219305406">
        <ele>0</ele>
        <time>2020-07-01T19:28:57Z</time>
      </trkpt>
      <trkpt lat="51.229397055155" lon="4.449142611021">
        <ele>0</ele>
        <time>2020-07-01T19:29:05Z</time>
      </trkpt>
      <trkpt lat="51.229386913056" lon="4.449067593016">
        <ele>0</ele>
        <time>2020-07-01T19:29:08Z</time>
      </trkpt>
      <trkpt lat="51.22902699427" lon="4.448359741561">
        <ele>0</ele>
        <time>2020-07-01T19:29:24Z</time>
      </trkpt>
      <trkpt lat="51.228826583041" lon="4.448145919292">
        <ele>0</ele>
        <time>2020-07-01T19:29:31Z</time>
      </trkpt>
      <trkpt lat="51.228695154849" lon="4.44819302557">
        <ele>0</ele>
        <time>2020-07-01T19:29:54Z</time>
      </trkpt>
      <trkpt lat="51.228746535896" lon="4.448022118629">
        <ele>0</ele>
        <time>2020-07-01T19:31:07Z</time>
      </trkpt>
      <trkpt lat="51.228756761814" lon="4.448010048693">
        <ele>0</ele>
        <time>2020-07-01T19:31:08Z</time>
      </trkpt>
      <trkpt lat="51.228833037104" lon="4.448036451678">
        <ele>0</ele>
        <time>2020-07-01T19:31:12Z</time>
      </trkpt>
      <trkpt lat="51.229229500974" lon="4.448710104981">
        <ele>0</ele>
        <time>2020-07-01T19:31:28Z</time>
      </trkpt>
      <trkpt lat="51.229467379296" lon="4.449468583112">
        <ele>0</ele>
        <time>2020-07-01T19:31:42Z</time>
      </trkpt>
      <trkpt lat="51.229615236012" lon="4.450346419499">
        <ele>0</ele>
        <time>2020-07-01T19:31:59Z</time>
      </trkpt>
      <trkpt lat="51.229815311965" lon="4.451029879625">
        <ele>0</ele>
        <time>2020-07-01T19:32:13Z</time>
      </trkpt>
      <trkpt lat="51.230358291447" lon="4.450781775385">
        <ele>0</ele>
        <time>2020-07-01T19:32:28Z</time>
      </trkpt>
      <trkpt lat="51.230532886424" lon="4.450762497015">
        <ele>0</ele>
        <time>2020-07-01T19:32:37Z</time>
      </trkpt>
      <trkpt lat="51.230393160151" lon="4.450405511894">
        <ele>0.2</ele>
        <time>2020-07-01T19:35:11Z</time>
      </trkpt>
      <trkpt lat="51.230394668893" lon="4.450367625706">
        <ele>0.6</ele>
        <time>2020-07-01T19:35:13Z</time>
      </trkpt>
      <trkpt lat="51.23023398787" lon="4.449553491759">
        <ele>4.8</ele>
        <time>2020-07-01T19:35:37Z</time>
      </trkpt>
      <trkpt lat="51.230023350723" lon="4.448701639262">
        <ele>4.8</ele>
        <time>2020-07-01T19:35:55Z</time>
      </trkpt>
      <trkpt lat="51.229837021086" lon="4.447870657696">
        <ele>0.6</ele>
        <time>2020-07-01T19:36:13Z</time>
      </trkpt>
      <trkpt lat="51.229640884626" lon="4.447051746066">
        <ele>0</ele>
        <time>2020-07-01T19:36:30Z</time>
      </trkpt>
      <trkpt lat="51.229557903816" lon="4.44683096682">
        <ele>0.4</ele>
        <time>2020-07-01T19:36:37Z</time>
      </trkpt>
      <trkpt lat="51.229515239945" lon="4.44685527433">
        <ele>0.6</ele>
        <time>2020-07-01T19:36:39Z</time>
      </trkpt>
      <trkpt lat="51.229141239567" lon="4.447494478024">
        <ele>0</ele>
        <time>2020-07-01T19:36:55Z</time>
      </trkpt>
      <trkpt lat="51.22869171827" lon="4.447775104036">
        <ele>0</ele>
        <time>2020-07-01T19:37:11Z</time>
      </trkpt>
      <trkpt lat="51.228316712064" lon="4.447181833154">
        <ele>2.2</ele>
        <time>2020-07-01T19:37:28Z</time>
      </trkpt>
      <trkpt lat="51.227870543527" lon="4.447696481814">
        <ele>1.4</ele>
        <time>2020-07-01T19:37:44Z</time>
      </trkpt>
      <trkpt lat="51.227454801287" lon="4.44826008077">
        <ele>0</ele>
        <time>2020-07-01T19:38:00Z</time>
      </trkpt>
      <trkpt lat="51.227088931352" lon="4.448948318579">
        <ele>0.4</ele>
        <time>2020-07-01T19:38:15Z</time>
      </trkpt>
      <trkpt lat="51.226904529552" lon="4.449326006993">
        <ele>1.8</ele>
        <time>2020-07-01T19:38:27Z</time>
      </trkpt>
      <trkpt lat="51.226870834314" lon="4.44927680524">
        <ele>3.2</ele>
        <time>2020-07-01T19:38:29Z</time>
      </trkpt>
      <trkpt lat="51.226734209344" lon="4.449138922985">
        <ele>5</ele>
        <time>2020-07-01T19:38:37Z</time>
      </trkpt>
      <trkpt lat="51.226607307378" lon="4.449276218507">
        <ele>4.6</ele>
        <time>2020-07-01T19:38:42Z</time>
      </trkpt>
      <trkpt lat="51.226304301693" lon="4.448835665843">
        <ele>4.2</ele>
        <time>2020-07-01T19:38:58Z</time>
      </trkpt>
      <trkpt lat="51.226258285062" lon="4.448873384393">
        <ele>3.8</ele>
        <time>2020-07-01T19:39:00Z</time>
      </trkpt>
      <trkpt lat="51.225912866963" lon="4.449526753498">
        <ele>0.2</ele>
        <time>2020-07-01T19:39:16Z</time>
      </trkpt>
      <trkpt lat="51.225857881699" lon="4.449613170887">
        <ele>0</ele>
        <time>2020-07-01T19:39:19Z</time>
      </trkpt>
      <trkpt lat="51.225736679425" lon="4.449675951318">
        <ele>0</ele>
        <time>2020-07-01T19:40:39Z</time>
      </trkpt>
      <trkpt lat="51.225189257536" lon="4.449803859112">
        <ele>0</ele>
        <time>2020-07-01T19:40:53Z</time>
      </trkpt>
      <trkpt lat="51.224741664076" lon="4.450336947952">
        <ele>0</ele>
        <time>2020-07-01T19:41:05Z</time>
      </trkpt>
      <trkpt lat="51.224337656496" lon="4.450960896588">
        <ele>0</ele>
        <time>2020-07-01T19:41:17Z</time>
      </trkpt>
      <trkpt lat="51.224062897814" lon="4.451316792062">
        <ele>0</ele>
        <time>2020-07-01T19:41:24Z</time>
      </trkpt>
      <trkpt lat="51.223963907575" lon="4.45136808929">
        <ele>0</ele>
        <time>2020-07-01T19:41:26Z</time>
      </trkpt>
      <trkpt lat="51.223766430011" lon="4.451369681851">
        <ele>0</ele>
        <time>2020-07-01T19:41:30Z</time>
      </trkpt>
      <trkpt lat="51.223674732025" lon="4.451336657165">
        <ele>0</ele>
        <time>2020-07-01T19:41:32Z</time>
      </trkpt>
      <trkpt lat="51.2231152402" lon="4.451173042477">
        <ele>0</ele>
        <time>2020-07-01T19:41:45Z</time>
      </trkpt>
      <trkpt lat="51.22262573724" lon="4.451110681141">
        <ele>0</ele>
        <time>2020-07-01T19:41:58Z</time>
      </trkpt>
      <trkpt lat="51.222072112745" lon="4.451254346907">
        <ele>0</ele>
        <time>2020-07-01T19:42:13Z</time>
      </trkpt>
      <trkpt lat="51.221568025279" lon="4.451566069768">
        <ele>0</ele>
        <time>2020-07-01T19:42:27Z</time>
      </trkpt>
      <trkpt lat="51.221017669725" lon="4.451672268441">
        <ele>0</ele>
        <time>2020-07-01T19:42:45Z</time>
      </trkpt>
      <trkpt lat="51.220468487637" lon="4.451800092416">
        <ele>0</ele>
        <time>2020-07-01T19:43:00Z</time>
      </trkpt>
      <trkpt lat="51.219914863142" lon="4.451879301371">
        <ele>0</ele>
        <time>2020-07-01T19:43:15Z</time>
      </trkpt>
      <trkpt lat="51.21936601633" lon="4.451986002958">
        <ele>0</ele>
        <time>2020-07-01T19:43:30Z</time>
      </trkpt>
      <trkpt lat="51.219197121045" lon="4.452025314069">
        <ele>0</ele>
        <time>2020-07-01T19:43:34Z</time>
      </trkpt>
      <trkpt lat="51.219031913796" lon="4.452544405136">
        <ele>0</ele>
        <time>2020-07-01T19:43:44Z</time>
      </trkpt>
      <trkpt lat="51.219325364115" lon="4.453304978742">
        <ele>0</ele>
        <time>2020-07-01T19:43:55Z</time>
      </trkpt>
      <trkpt lat="51.219550837225" lon="4.453885006222">
        <ele>0</ele>
        <time>2020-07-01T19:44:04Z</time>
      </trkpt>
      <trkpt lat="51.21958897487" lon="4.454004615935">
        <ele>0</ele>
        <time>2020-07-01T19:44:06Z</time>
      </trkpt>
      <trkpt lat="51.219866331941" lon="4.454758148745">
        <ele>0</ele>
        <time>2020-07-01T19:44:21Z</time>
      </trkpt>
      <trkpt lat="51.220040675461" lon="4.455284783522">
        <ele>0</ele>
        <time>2020-07-01T19:44:34Z</time>
      </trkpt>
      <trkpt lat="51.22002651005" lon="4.45530087677">
        <ele>0</ele>
        <time>2020-07-01T19:44:36Z</time>
      </trkpt>
      <trkpt lat="51.220004549472" lon="4.455324513728">
        <ele>0</ele>
        <time>2020-07-01T19:44:41Z</time>
      </trkpt>
      <trkpt lat="51.219988120948" lon="4.455363908658">
        <ele>0</ele>
        <time>2020-07-01T19:44:43Z</time>
      </trkpt>
      <trkpt lat="51.219922155395" lon="4.455329207592">
        <ele>0</ele>
        <time>2020-07-01T19:44:52Z</time>
      </trkpt>
      <trkpt lat="51.219858285317" lon="4.455214124105">
        <ele>4</ele>
        <time>2020-07-01T19:45:00Z</time>
      </trkpt>
      <trkpt lat="51.219903463758" lon="4.455226110222">
        <ele>10</ele>
        <time>2020-07-01T19:45:13Z</time>
      </trkpt>
      <trkpt lat="51.219915282237" lon="4.455276653079">
        <ele>11</ele>
        <time>2020-07-01T19:45:16Z</time>
      </trkpt>
      <trkpt lat="51.21998627693" lon="4.455484691837">
        <ele>10.8</ele>
        <time>2020-07-01T19:45:24Z</time>
      </trkpt>
      <trkpt lat="51.21948671569" lon="4.455930692736">
        <ele>0</ele>
        <time>2020-07-01T19:45:42Z</time>
      </trkpt>
      <trkpt lat="51.218974497781" lon="4.456331096099">
        <ele>0</ele>
        <time>2020-07-01T19:45:58Z</time>
      </trkpt>
      <trkpt lat="51.218530508538" lon="4.456669389583">
        <ele>0</ele>
        <time>2020-07-01T19:46:10Z</time>
      </trkpt>
      <trkpt lat="51.218058775206" lon="4.457117066862">
        <ele>0</ele>
        <time>2020-07-01T19:46:24Z</time>
      </trkpt>
      <trkpt lat="51.21800898672" lon="4.458006134995">
        <ele>5</ele>
        <time>2020-07-01T19:46:39Z</time>
      </trkpt>
      <trkpt lat="51.217971016713" lon="4.458882043545">
        <ele>10.4</ele>
        <time>2020-07-01T19:46:55Z</time>
      </trkpt>
      <trkpt lat="51.217969675609" lon="4.459789635677">
        <ele>9.6</ele>
        <time>2020-07-01T19:47:09Z</time>
      </trkpt>
      <trkpt lat="51.217915360897" lon="4.460681386018">
        <ele>12.8</ele>
        <time>2020-07-01T19:47:22Z</time>
      </trkpt>
      <trkpt lat="51.217861213823" lon="4.461586798856">
        <ele>8.8</ele>
        <time>2020-07-01T19:47:40Z</time>
      </trkpt>
      <trkpt lat="51.217811341518" lon="4.462451643298">
        <ele>3.6</ele>
        <time>2020-07-01T19:47:54Z</time>
      </trkpt>
      <trkpt lat="51.217765324887" lon="4.4633198405">
        <ele>0.6</ele>
        <time>2020-07-01T19:48:08Z</time>
      </trkpt>
      <trkpt lat="51.217719727351" lon="4.464216955257">
        <ele>0.4</ele>
        <time>2020-07-01T19:48:22Z</time>
      </trkpt>
      <trkpt lat="51.217689971606" lon="4.465074591265">
        <ele>0</ele>
        <time>2020-07-01T19:48:35Z</time>
      </trkpt>
      <trkpt lat="51.217653510341" lon="4.465980590836">
        <ele>2.4</ele>
        <time>2020-07-01T19:48:47Z</time>
      </trkpt>
      <trkpt lat="51.217606990796" lon="4.466881477448">
        <ele>4.6</ele>
        <time>2020-07-01T19:49:00Z</time>
      </trkpt>
      <trkpt lat="51.21756726059" lon="4.467744561691">
        <ele>9</ele>
        <time>2020-07-01T19:49:14Z</time>
      </trkpt>
      <trkpt lat="51.217497104087" lon="4.468595827455">
        <ele>1</ele>
        <time>2020-07-01T19:49:29Z</time>
      </trkpt>
      <trkpt lat="51.217488722187" lon="4.46865743442">
        <ele>1</ele>
        <time>2020-07-01T19:49:31Z</time>
      </trkpt>
      <trkpt lat="51.217548233677" lon="4.468714263702">
        <ele>4.2</ele>
        <time>2020-07-01T19:51:33Z</time>
      </trkpt>
      <trkpt lat="51.217551670256" lon="4.468754496822">
        <ele>4.6</ele>
        <time>2020-07-01T19:51:35Z</time>
      </trkpt>
      <trkpt lat="51.217569607522" lon="4.469634847779">
        <ele>2.4</ele>
        <time>2020-07-01T19:51:55Z</time>
      </trkpt>
      <trkpt lat="51.217496768811" lon="4.470525927568">
        <ele>0.2</ele>
        <time>2020-07-01T19:52:11Z</time>
      </trkpt>
      <trkpt lat="51.21740046078" lon="4.471370487812">
        <ele>0</ele>
        <time>2020-07-01T19:52:25Z</time>
      </trkpt>
      <trkpt lat="51.217378416383" lon="4.47224237305">
        <ele>0</ele>
        <time>2020-07-01T19:52:40Z</time>
      </trkpt>
      <trkpt lat="51.217342206575" lon="4.473156167788">
        <ele>3.2</ele>
        <time>2020-07-01T19:52:56Z</time>
      </trkpt>
      <trkpt lat="51.21731915635" lon="4.474028136845">
        <ele>4.4</ele>
        <time>2020-07-01T19:53:12Z</time>
      </trkpt>
      <trkpt lat="51.21726215943" lon="4.474915696236">
        <ele>5</ele>
        <time>2020-07-01T19:53:30Z</time>
      </trkpt>
      <trkpt lat="51.217199965732" lon="4.47581306245">
        <ele>5.4</ele>
        <time>2020-07-01T19:53:46Z</time>
      </trkpt>
      <trkpt lat="51.217155960757" lon="4.476682936032">
        <ele>11.4</ele>
        <time>2020-07-01T19:54:00Z</time>
      </trkpt>
      <trkpt lat="51.217117906931" lon="4.477424650363">
        <ele>13.2</ele>
        <time>2020-07-01T19:54:11Z</time>
      </trkpt>
      <trkpt lat="51.2170718903" lon="4.478342468413">
        <ele>10.2</ele>
        <time>2020-07-01T19:54:24Z</time>
      </trkpt>
      <trkpt lat="51.217053785396" lon="4.479235643677">
        <ele>3.2</ele>
        <time>2020-07-01T19:54:38Z</time>
      </trkpt>
      <trkpt lat="51.217018162321" lon="4.480110127304">
        <ele>6</ele>
        <time>2020-07-01T19:54:52Z</time>
      </trkpt>
      <trkpt lat="51.216977593925" lon="4.481007661156">
        <ele>11.4</ele>
        <time>2020-07-01T19:55:07Z</time>
      </trkpt>
      <trkpt lat="51.217072477033" lon="4.48183294303">
        <ele>11.4</ele>
        <time>2020-07-01T19:55:24Z</time>
      </trkpt>
      <trkpt lat="51.217074907784" lon="4.481840570559">
        <ele>11</ele>
        <time>2020-07-01T19:55:25Z</time>
      </trkpt>
      <trkpt lat="51.217074488689" lon="4.481886754828">
        <ele>8.2</ele>
        <time>2020-07-01T19:56:47Z</time>
      </trkpt>
      <trkpt lat="51.217043475659" lon="4.482148521565">
        <ele>7</ele>
        <time>2020-07-01T19:56:59Z</time>
      </trkpt>
      <trkpt lat="51.217011875896" lon="4.482208955064">
        <ele>6.4</ele>
        <time>2020-07-01T19:57:02Z</time>
      </trkpt>
      <trkpt lat="51.216960997763" lon="4.482358571979">
        <ele>4.8</ele>
        <time>2020-07-01T19:57:07Z</time>
      </trkpt>
      <trkpt lat="51.216970553129" lon="4.482414563071">
        <ele>4</ele>
        <time>2020-07-01T19:57:09Z</time>
      </trkpt>
      <trkpt lat="51.216984886178" lon="4.482396709624">
        <ele>3.2</ele>
        <time>2020-07-01T19:57:11Z</time>
      </trkpt>
      <trkpt lat="51.217027047135" lon="4.482227646701">
        <ele>2</ele>
        <time>2020-07-01T19:57:16Z</time>
      </trkpt>
      <trkpt lat="51.217544378003" lon="4.481985745067">
        <ele>5.4</ele>
        <time>2020-07-01T19:57:33Z</time>
      </trkpt>
      <trkpt lat="51.218090877883" lon="4.481708136539">
        <ele>8.2</ele>
        <time>2020-07-01T19:57:50Z</time>
      </trkpt>
      <trkpt lat="51.218621033058" lon="4.481429857459">
        <ele>5.4</ele>
        <time>2020-07-01T19:58:05Z</time>
      </trkpt>
      <trkpt lat="51.219149008939" lon="4.481131713276">
        <ele>12</ele>
        <time>2020-07-01T19:58:20Z</time>
      </trkpt>
      <trkpt lat="51.219656784441" lon="4.481070357768">
        <ele>7</ele>
        <time>2020-07-01T19:58:42Z</time>
      </trkpt>
      <trkpt lat="51.219665333979" lon="4.481074548718">
        <ele>7.4</ele>
        <time>2020-07-01T19:58:52Z</time>
      </trkpt>
      <trkpt lat="51.219679164114" lon="4.481069771035">
        <ele>7.6</ele>
        <time>2020-07-01T19:58:53Z</time>
      </trkpt>
      <trkpt lat="51.219894495125" lon="4.480842034812">
        <ele>7.4</ele>
        <time>2020-07-01T19:59:02Z</time>
      </trkpt>
      <trkpt lat="51.220395565107" lon="4.480472476841">
        <ele>12</ele>
        <time>2020-07-01T19:59:19Z</time>
      </trkpt>
      <trkpt lat="51.220939215141" lon="4.480233844148">
        <ele>10.8</ele>
        <time>2020-07-01T19:59:34Z</time>
      </trkpt>
      <trkpt lat="51.221470962877" lon="4.479970233393">
        <ele>11.2</ele>
        <time>2020-07-01T19:59:48Z</time>
      </trkpt>
      <trkpt lat="51.221575233713" lon="4.479946009702">
        <ele>8.4</ele>
        <time>2020-07-01T19:59:53Z</time>
      </trkpt>
      <trkpt lat="51.22159392535" lon="4.479942656942">
        <ele>5.8</ele>
        <time>2020-07-01T20:00:00Z</time>
      </trkpt>
      <trkpt lat="51.222135144633" lon="4.479678710911">
        <ele>4.2</ele>
        <time>2020-07-01T20:00:17Z</time>
      </trkpt>
      <trkpt lat="51.222642165764" lon="4.479348715508">
        <ele>9.8</ele>
        <time>2020-07-01T20:00:33Z</time>
      </trkpt>
      <trkpt lat="51.22317978083" lon="4.479242349197">
        <ele>10.4</ele>
        <time>2020-07-01T20:00:48Z</time>
      </trkpt>
      <trkpt lat="51.223732231859" lon="4.479196500204">
        <ele>22.6</ele>
        <time>2020-07-01T20:01:02Z</time>
      </trkpt>
      <trkpt lat="51.224291723684" lon="4.479256598427">
        <ele>20.4</ele>
        <time>2020-07-01T20:01:15Z</time>
      </trkpt>
      <trkpt lat="51.22483269151" lon="4.47927813991">
        <ele>15.4</ele>
        <time>2020-07-01T20:01:27Z</time>
      </trkpt>
      <trkpt lat="51.225395871371" lon="4.479276379711">
        <ele>15.6</ele>
        <time>2020-07-01T20:01:40Z</time>
      </trkpt>
      <trkpt lat="51.225947568029" lon="4.479287443819">
        <ele>8.8</ele>
        <time>2020-07-01T20:01:53Z</time>
      </trkpt>
      <trkpt lat="51.226522817826" lon="4.479288701104">
        <ele>7.2</ele>
        <time>2020-07-01T20:02:07Z</time>
      </trkpt>
      <trkpt lat="51.227084237488" lon="4.479307392741">
        <ele>8.2</ele>
        <time>2020-07-01T20:02:21Z</time>
      </trkpt>
      <trkpt lat="51.227201835545" lon="4.479317953935">
        <ele>8.2</ele>
        <time>2020-07-01T20:02:24Z</time>
      </trkpt>
      <trkpt lat="51.227367797165" lon="4.479296412452">
        <ele>8.2</ele>
        <time>2020-07-01T20:02:28Z</time>
      </trkpt>
      <trkpt lat="51.227919326185" lon="4.479301273954">
        <ele>8.4</ele>
        <time>2020-07-01T20:02:43Z</time>
      </trkpt>
      <trkpt lat="51.228480578209" lon="4.479288114371">
        <ele>4.8</ele>
        <time>2020-07-01T20:02:58Z</time>
      </trkpt>
      <trkpt lat="51.229048871029" lon="4.479267662535">
        <ele>5</ele>
        <time>2020-07-01T20:03:14Z</time>
      </trkpt>
      <trkpt lat="51.229615738926" lon="4.479206390846">
        <ele>11.4</ele>
        <time>2020-07-01T20:03:31Z</time>
      </trkpt>
      <trkpt lat="51.230173554371" lon="4.479216784402">
        <ele>12.8</ele>
        <time>2020-07-01T20:03:45Z</time>
      </trkpt>
      <trkpt lat="51.230718042595" lon="4.479182837707">
        <ele>15.4</ele>
        <time>2020-07-01T20:04:00Z</time>
      </trkpt>
      <trkpt lat="51.23128507813" lon="4.479037998475">
        <ele>30.6</ele>
        <time>2020-07-01T20:04:16Z</time>
      </trkpt>
      <trkpt lat="51.231778017669" lon="4.479252910391">
        <ele>25.2</ele>
        <time>2020-07-01T20:04:30Z</time>
      </trkpt>
      <trkpt lat="51.231782292438" lon="4.479319965591">
        <ele>24.8</ele>
        <time>2020-07-01T20:04:31Z</time>
      </trkpt>
      <trkpt lat="51.231860411746" lon="4.480208949905">
        <ele>21.6</ele>
        <time>2020-07-01T20:04:46Z</time>
      </trkpt>
      <trkpt lat="51.231881785591" lon="4.481081840971">
        <ele>20.6</ele>
        <time>2020-07-01T20:05:00Z</time>
      </trkpt>
      <trkpt lat="51.231936100303" lon="4.48196789162">
        <ele>12.2</ele>
        <time>2020-07-01T20:05:15Z</time>
      </trkpt>
      <trkpt lat="51.232150006391" lon="4.482776242056">
        <ele>9.2</ele>
        <time>2020-07-01T20:05:30Z</time>
      </trkpt>
      <trkpt lat="51.232512272109" lon="4.483385857643">
        <ele>4.4</ele>
        <time>2020-07-01T20:05:46Z</time>
      </trkpt>
      <trkpt lat="51.232872358533" lon="4.484078537859">
        <ele>0</ele>
        <time>2020-07-01T20:06:03Z</time>
      </trkpt>
      <trkpt lat="51.233227331998" lon="4.48472050758">
        <ele>0</ele>
        <time>2020-07-01T20:06:17Z</time>
      </trkpt>
      <trkpt lat="51.233592196105" lon="4.485359543636">
        <ele>0.4</ele>
        <time>2020-07-01T20:06:30Z</time>
      </trkpt>
      <trkpt lat="51.23395052233" lon="4.486002267728">
        <ele>1</ele>
        <time>2020-07-01T20:06:44Z</time>
      </trkpt>
      <trkpt lat="51.234329635667" lon="4.486685811673">
        <ele>0.2</ele>
        <time>2020-07-01T20:06:59Z</time>
      </trkpt>
      <trkpt lat="51.234472295605" lon="4.487025446261">
        <ele>0</ele>
        <time>2020-07-01T20:07:05Z</time>
      </trkpt>
      <trkpt lat="51.23451546239" lon="4.487154024607">
        <ele>0</ele>
        <time>2020-07-01T20:07:07Z</time>
      </trkpt>
      <trkpt lat="51.234889378949" lon="4.487816027069">
        <ele>0</ele>
        <time>2020-07-01T20:07:20Z</time>
      </trkpt>
      <trkpt lat="51.235258601644" lon="4.488464953767">
        <ele>0.8</ele>
        <time>2020-07-01T20:07:33Z</time>
      </trkpt>
      <trkpt lat="51.235415091717" lon="4.488763181769">
        <ele>0.4</ele>
        <time>2020-07-01T20:07:39Z</time>
      </trkpt>
      <trkpt lat="51.235480302899" lon="4.488851359357">
        <ele>0.4</ele>
        <time>2020-07-01T20:07:41Z</time>
      </trkpt>
      <trkpt lat="51.235707955303" lon="4.489251846539">
        <ele>1</ele>
        <time>2020-07-01T20:07:49Z</time>
      </trkpt>
      <trkpt lat="51.235930410929" lon="4.489651914626">
        <ele>1.4</ele>
        <time>2020-07-01T20:07:57Z</time>
      </trkpt>
      <trkpt lat="51.235987994582" lon="4.489712180487">
        <ele>1</ele>
        <time>2020-07-01T20:07:59Z</time>
      </trkpt>
      <trkpt lat="51.236133923461" lon="4.488934172529">
        <ele>0.8</ele>
        <time>2020-07-01T20:08:18Z</time>
      </trkpt>
      <trkpt lat="51.236094779988" lon="4.488049127708">
        <ele>4</ele>
        <time>2020-07-01T20:08:39Z</time>
      </trkpt>
      <trkpt lat="51.236061000931" lon="4.487187216931">
        <ele>3.8</ele>
        <time>2020-07-01T20:08:59Z</time>
      </trkpt>
      <trkpt lat="51.236048930995" lon="4.486301920653">
        <ele>3.4</ele>
        <time>2020-07-01T20:09:17Z</time>
      </trkpt>
      <trkpt lat="51.236038788896" lon="4.485435064555">
        <ele>3.4</ele>
        <time>2020-07-01T20:09:36Z</time>
      </trkpt>
      <trkpt lat="51.236017331232" lon="4.484546918431">
        <ele>3.8</ele>
        <time>2020-07-01T20:09:54Z</time>
      </trkpt>
      <trkpt lat="51.236021522182" lon="4.483668076216">
        <ele>1.8</ele>
        <time>2020-07-01T20:10:12Z</time>
      </trkpt>
      <trkpt lat="51.236019007612" lon="4.482776828789">
        <ele>0</ele>
        <time>2020-07-01T20:10:28Z</time>
      </trkpt>
      <trkpt lat="51.23604013" lon="4.481883821163">
        <ele>0</ele>
        <time>2020-07-01T20:10:43Z</time>
      </trkpt>
      <trkpt lat="51.236084218794" lon="4.480995423582">
        <ele>0.6</ele>
        <time>2020-07-01T20:10:57Z</time>
      </trkpt>
      <trkpt lat="51.23609712692" lon="4.480113899159">
        <ele>0</ele>
        <time>2020-07-01T20:11:15Z</time>
      </trkpt>
      <trkpt lat="51.236112046702" lon="4.479219215153">
        <ele>0</ele>
        <time>2020-07-01T20:11:29Z</time>
      </trkpt>
      <trkpt lat="51.23607198122" lon="4.478345653535">
        <ele>0</ele>
        <time>2020-07-01T20:11:44Z</time>
      </trkpt>
      <trkpt lat="51.235896967148" lon="4.47752632281">
        <ele>0</ele>
        <time>2020-07-01T20:11:59Z</time>
      </trkpt>
      <trkpt lat="51.235735196478" lon="4.476677990711">
        <ele>0</ele>
        <time>2020-07-01T20:12:16Z</time>
      </trkpt>
      <trkpt lat="51.235574683093" lon="4.475814822649">
        <ele>0</ele>
        <time>2020-07-01T20:12:34Z</time>
      </trkpt>
      <trkpt lat="51.235359268263" lon="4.475013596828">
        <ele>0</ele>
        <time>2020-07-01T20:12:48Z</time>
      </trkpt>
      <trkpt lat="51.235161120147" lon="4.474173227534">
        <ele>0</ele>
        <time>2020-07-01T20:13:05Z</time>
      </trkpt>
      <trkpt lat="51.234982585677" lon="4.473327493824">
        <ele>0.8</ele>
        <time>2020-07-01T20:13:23Z</time>
      </trkpt>
      <trkpt lat="51.234802207189" lon="4.472485699607">
        <ele>0.8</ele>
        <time>2020-07-01T20:13:39Z</time>
      </trkpt>
      <trkpt lat="51.234785527208" lon="4.472366676627">
        <ele>1.2</ele>
        <time>2020-07-01T20:13:41Z</time>
      </trkpt>
      <trkpt lat="51.234773373453" lon="4.472233069141">
        <ele>1</ele>
        <time>2020-07-01T20:13:44Z</time>
      </trkpt>
      <trkpt lat="51.234738085654" lon="4.472185124673">
        <ele>1</ele>
        <time>2020-07-01T20:13:46Z</time>
      </trkpt>
      <trkpt lat="51.234602047417" lon="4.47135053889">
        <ele>3.2</ele>
        <time>2020-07-01T20:14:07Z</time>
      </trkpt>
      <trkpt lat="51.234482102428" lon="4.470506565379">
        <ele>4</ele>
        <time>2020-07-01T20:14:26Z</time>
      </trkpt>
      <trkpt lat="51.23435788267" lon="4.469661669859">
        <ele>3.6</ele>
        <time>2020-07-01T20:14:44Z</time>
      </trkpt>
      <trkpt lat="51.234218407854" lon="4.468792885924">
        <ele>3</ele>
        <time>2020-07-01T20:15:03Z</time>
      </trkpt>
      <trkpt lat="51.234103240548" lon="4.467952684268">
        <ele>2.6</ele>
        <time>2020-07-01T20:15:21Z</time>
      </trkpt>
      <trkpt lat="51.233989665803" lon="4.467084570885">
        <ele>2.4</ele>
        <time>2020-07-01T20:15:41Z</time>
      </trkpt>
      <trkpt lat="51.233856393593" lon="4.46624177084">
        <ele>0</ele>
        <time>2020-07-01T20:15:56Z</time>
      </trkpt>
      <trkpt lat="51.233715242397" lon="4.465388158144">
        <ele>1</ele>
        <time>2020-07-01T20:16:12Z</time>
      </trkpt>
      <trkpt lat="51.233596051779" lon="4.464550387239">
        <ele>2.2</ele>
        <time>2020-07-01T20:16:27Z</time>
      </trkpt>
      <trkpt lat="51.233512400417" lon="4.464185355494">
        <ele>4.2</ele>
        <time>2020-07-01T20:16:38Z</time>
      </trkpt>
      <trkpt lat="51.233482309396" lon="4.464113019697">
        <ele>5</ele>
        <time>2020-07-01T20:16:43Z</time>
      </trkpt>
      <trkpt lat="51.233486835622" lon="4.464034397475">
        <ele>5.6</ele>
        <time>2020-07-01T20:17:04Z</time>
      </trkpt>
      <trkpt lat="51.233364124606" lon="4.463189837231">
        <ele>3.6</ele>
        <time>2020-07-01T20:17:29Z</time>
      </trkpt>
      <trkpt lat="51.233243676703" lon="4.462312084663">
        <ele>1.6</ele>
        <time>2020-07-01T20:17:53Z</time>
      </trkpt>
      <trkpt lat="51.23310143586" lon="4.461460651261">
        <ele>0.4</ele>
        <time>2020-07-01T20:18:10Z</time>
      </trkpt>
      <trkpt lat="51.232982077604" lon="4.460600500683">
        <ele>0.8</ele>
        <time>2020-07-01T20:18:28Z</time>
      </trkpt>
      <trkpt lat="51.232847799566" lon="4.459721071735">
        <ele>0.4</ele>
        <time>2020-07-01T20:18:46Z</time>
      </trkpt>
      <trkpt lat="51.232679407195" lon="4.458858071311">
        <ele>0.6</ele>
        <time>2020-07-01T20:19:06Z</time>
      </trkpt>
      <trkpt lat="51.232520821647" lon="4.457998256009">
        <ele>1.8</ele>
        <time>2020-07-01T20:19:23Z</time>
      </trkpt>
      <trkpt lat="51.232428201652" lon="4.457396100313">
        <ele>4.2</ele>
        <time>2020-07-01T20:19:40Z</time>
      </trkpt>
      <trkpt lat="51.232415880259" lon="4.457252434547">
        <ele>4.4</ele>
        <time>2020-07-01T20:20:20Z</time>
      </trkpt>
      <trkpt lat="51.232268107362" lon="4.456742060656">
        <ele>4.6</ele>
        <time>2020-07-01T20:20:35Z</time>
      </trkpt>
      <trkpt lat="51.23177290471" lon="4.456389769399">
        <ele>2.6</ele>
        <time>2020-07-01T20:20:53Z</time>
      </trkpt>
      <trkpt lat="51.231272337642" lon="4.455987857294">
        <ele>1.4</ele>
        <time>2020-07-01T20:21:10Z</time>
      </trkpt>
      <trkpt lat="51.230778643732" lon="4.455592650709">
        <ele>0.2</ele>
        <time>2020-07-01T20:21:25Z</time>
      </trkpt>
      <trkpt lat="51.230273634257" lon="4.455203562911">
        <ele>0</ele>
        <time>2020-07-01T20:21:43Z</time>
      </trkpt>
      <trkpt lat="51.229901813173" lon="4.454901814511">
        <ele>0</ele>
        <time>2020-07-01T20:22:00Z</time>
      </trkpt>
      <trkpt lat="51.229757812131" lon="4.454842889754">
        <ele>0</ele>
        <time>2020-07-01T20:23:17Z</time>
      </trkpt>
      <trkpt lat="51.229723865436" lon="4.454824365755">
        <ele>0</ele>
        <time>2020-07-01T20:23:19Z</time>
      </trkpt>
      <trkpt lat="51.229479281594" lon="4.454717664168">
        <ele>0</ele>
        <time>2020-07-01T20:23:28Z</time>
      </trkpt>
      <trkpt lat="51.229429409289" lon="4.453326184949">
        <ele>0</ele>
        <time>2020-07-01T20:23:55Z</time>
      </trkpt>
      <trkpt lat="51.229306027721" lon="4.452444073793">
        <ele>0</ele>
        <time>2020-07-01T20:24:13Z</time>
      </trkpt>
      <trkpt lat="51.22910075499" lon="4.451647458017">
        <ele>0</ele>
        <time>2020-07-01T20:24:35Z</time>
      </trkpt>
      <trkpt lat="51.228983240752" lon="4.451310086542">
        <ele>0</ele>
        <time>2020-07-01T20:24:44Z</time>
      </trkpt>
      <trkpt lat="51.229014337601" lon="4.451211934493">
        <ele>0</ele>
        <time>2020-07-01T20:24:47Z</time>
      </trkpt>
      <trkpt lat="51.229548767545" lon="4.4510235932">
        <ele>0</ele>
        <time>2020-07-01T20:25:04Z</time>
      </trkpt>
      <trkpt lat="51.229623701731" lon="4.450945306254">
        <ele>0</ele>
        <time>2020-07-01T20:25:08Z</time>
      </trkpt>
      <trkpt lat="51.229510546081" lon="4.450061015804">
        <ele>0</ele>
        <time>2020-07-01T20:25:26Z</time>
      </trkpt>
      <trkpt lat="51.229398563897" lon="4.449264819123">
        <ele>0</ele>
        <time>2020-07-01T20:25:39Z</time>
      </trkpt>
      <trkpt lat="51.229113244021" lon="4.448526206095">
        <ele>0</ele>
        <time>2020-07-01T20:25:54Z</time>
      </trkpt>
      <trkpt lat="51.22874284786" lon="4.448925016897">
        <ele>0</ele>
        <time>2020-07-01T20:26:09Z</time>
      </trkpt>
      <trkpt lat="51.228482757503" lon="4.449258867974">
        <ele>0</ele>
        <time>2020-07-01T20:26:26Z</time>
      </trkpt>
    </trkseg>
  </trk>
</gpx>